sensor_id;sensor_type;location;lat;lon;timestamp;P1;durP1;ratioP1;P2;durP2;ratioP2
28266;SDS011;15525;45.568;5.448;2024-03-06T00:00:26;9.23;;;5.70;;
28266;SDS011;15525;45.568;5.448;2024-03-06T00:02:51;8.65;;;5.45;;
28266;SDS011;15525;45.568;5.448;2024-03-06T00:05:17;7.95;;;5.47;;
28266;SDS011;15525;45.568;5.448;2024-03-06T00:07:42;10.73;;;5.68;;
28266;SDS011;15525;45.568;5.448;2024-03-06T00:10:07;8.20;;;5.28;;
28266;SDS011;15525;45.568;5.448;2024-03-06T00:12:33;8.18;;;5.78;;
28266;SDS011;15525;45.568;5.448;2024-03-06T00:14:59;6.75;;;5.20;;
28266;SDS011;15525;45.568;5.448;2024-03-06T00:17:24;8.43;;;5.38;;
28266;SDS011;15525;45.568;5.448;2024-03-06T00:19:50;7.43;;;5.38;;
28266;SDS011;15525;45.568;5.448;2024-03-06T00:22:16;8.95;;;5.32;;
28266;SDS011;15525;45.568;5.448;2024-03-06T00:24:42;9.80;;;5.63;;
28266;SDS011;15525;45.568;5.448;2024-03-06T00:27:07;11.13;;;6.28;;
28266;SDS011;15525;45.568;5.448;2024-03-06T00:29:32;9.23;;;5.68;;
28266;SDS011;15525;45.568;5.448;2024-03-06T00:31:58;9.07;;;5.95;;
28266;SDS011;15525;45.568;5.448;2024-03-06T00:34:23;8.80;;;5.68;;
28266;SDS011;15525;45.568;5.448;2024-03-06T00:36:49;8.98;;;5.25;;
28266;SDS011;15525;45.568;5.448;2024-03-06T00:39:15;10.07;;;5.85;;
28266;SDS011;15525;45.568;5.448;2024-03-06T00:41:40;10.13;;;6.03;;
28266;SDS011;15525;45.568;5.448;2024-03-06T00:44:07;10.18;;;5.90;;
28266;SDS011;15525;45.568;5.448;2024-03-06T00:46:32;13.30;;;6.82;;
28266;SDS011;15525;45.568;5.448;2024-03-06T00:48:57;9.27;;;6.38;;
28266;SDS011;15525;45.568;5.448;2024-03-06T00:51:23;12.63;;;7.90;;
28266;SDS011;15525;45.568;5.448;2024-03-06T00:53:50;10.40;;;6.30;;
28266;SDS011;15525;45.568;5.448;2024-03-06T00:56:15;11.90;;;6.15;;
28266;SDS011;15525;45.568;5.448;2024-03-06T00:58:41;10.23;;;6.22;;
28266;SDS011;15525;45.568;5.448;2024-03-06T01:01:06;10.77;;;7.25;;
28266;SDS011;15525;45.568;5.448;2024-03-06T01:03:31;12.20;;;7.15;;
28266;SDS011;15525;45.568;5.448;2024-03-06T01:05:57;15.10;;;8.20;;
28266;SDS011;15525;45.568;5.448;2024-03-06T01:08:22;13.45;;;7.80;;
28266;SDS011;15525;45.568;5.448;2024-03-06T01:10:52;12.82;;;7.75;;
28266;SDS011;15525;45.568;5.448;2024-03-06T01:13:19;13.82;;;7.95;;
28266;SDS011;15525;45.568;5.448;2024-03-06T01:15:45;14.30;;;7.65;;
28266;SDS011;15525;45.568;5.448;2024-03-06T01:18:10;16.85;;;8.93;;
28266;SDS011;15525;45.568;5.448;2024-03-06T01:20:36;14.90;;;8.75;;
28266;SDS011;15525;45.568;5.448;2024-03-06T01:23:02;16.45;;;8.55;;
28266;SDS011;15525;45.568;5.448;2024-03-06T01:25:27;15.30;;;8.77;;
28266;SDS011;15525;45.568;5.448;2024-03-06T01:27:53;15.35;;;9.30;;
28266;SDS011;15525;45.568;5.448;2024-03-06T01:30:18;17.08;;;9.05;;
28266;SDS011;15525;45.568;5.448;2024-03-06T01:32:43;14.38;;;8.88;;
28266;SDS011;15525;45.568;5.448;2024-03-06T01:35:09;15.20;;;8.77;;
28266;SDS011;15525;45.568;5.448;2024-03-06T01:37:34;15.07;;;8.70;;
28266;SDS011;15525;45.568;5.448;2024-03-06T01:39:59;17.10;;;9.70;;
28266;SDS011;15525;45.568;5.448;2024-03-06T01:42:25;16.73;;;8.73;;
28266;SDS011;15525;45.568;5.448;2024-03-06T01:44:50;17.10;;;10.10;;
28266;SDS011;15525;45.568;5.448;2024-03-06T01:47:16;17.63;;;10.07;;
28266;SDS011;15525;45.568;5.448;2024-03-06T01:49:41;14.27;;;8.98;;
28266;SDS011;15525;45.568;5.448;2024-03-06T01:52:08;12.65;;;7.82;;
28266;SDS011;15525;45.568;5.448;2024-03-06T01:54:37;12.30;;;7.07;;
28266;SDS011;15525;45.568;5.448;2024-03-06T01:57:03;12.07;;;7.63;;
28266;SDS011;15525;45.568;5.448;2024-03-06T01:59:31;11.57;;;7.00;;
28266;SDS011;15525;45.568;5.448;2024-03-06T02:01:57;11.27;;;6.80;;
28266;SDS011;15525;45.568;5.448;2024-03-06T02:04:23;10.68;;;6.90;;
28266;SDS011;15525;45.568;5.448;2024-03-06T02:06:49;13.18;;;6.28;;
28266;SDS011;15525;45.568;5.448;2024-03-06T02:09:14;9.50;;;6.38;;
28266;SDS011;15525;45.568;5.448;2024-03-06T02:11:40;9.85;;;5.88;;
28266;SDS011;15525;45.568;5.448;2024-03-06T02:14:06;9.95;;;6.30;;
28266;SDS011;15525;45.568;5.448;2024-03-06T02:16:34;8.98;;;6.25;;
28266;SDS011;15525;45.568;5.448;2024-03-06T02:19:04;10.93;;;6.35;;
28266;SDS011;15525;45.568;5.448;2024-03-06T02:21:29;10.98;;;6.50;;
28266;SDS011;15525;45.568;5.448;2024-03-06T02:23:56;11.13;;;6.70;;
28266;SDS011;15525;45.568;5.448;2024-03-06T02:26:22;9.60;;;6.20;;
28266;SDS011;15525;45.568;5.448;2024-03-06T02:28:48;10.45;;;5.90;;
28266;SDS011;15525;45.568;5.448;2024-03-06T02:31:15;9.82;;;6.20;;
28266;SDS011;15525;45.568;5.448;2024-03-06T02:33:41;33.67;;;21.27;;
28266;SDS011;15525;45.568;5.448;2024-03-06T02:36:06;13.13;;;8.95;;
28266;SDS011;15525;45.568;5.448;2024-03-06T02:38:31;12.15;;;7.40;;
28266;SDS011;15525;45.568;5.448;2024-03-06T02:40:57;11.25;;;6.50;;
28266;SDS011;15525;45.568;5.448;2024-03-06T02:43:23;10.07;;;6.20;;
28266;SDS011;15525;45.568;5.448;2024-03-06T02:45:48;10.80;;;6.97;;
28266;SDS011;15525;45.568;5.448;2024-03-06T02:48:14;10.50;;;7.32;;
28266;SDS011;15525;45.568;5.448;2024-03-06T02:50:39;14.02;;;7.53;;
28266;SDS011;15525;45.568;5.448;2024-03-06T02:53:04;10.07;;;6.50;;
28266;SDS011;15525;45.568;5.448;2024-03-06T02:55:30;11.68;;;6.57;;
28266;SDS011;15525;45.568;5.448;2024-03-06T02:57:55;12.40;;;7.28;;
28266;SDS011;15525;45.568;5.448;2024-03-06T03:00:21;9.70;;;7.00;;
28266;SDS011;15525;45.568;5.448;2024-03-06T03:02:47;10.68;;;7.05;;
28266;SDS011;15525;45.568;5.448;2024-03-06T03:05:12;12.27;;;7.60;;
28266;SDS011;15525;45.568;5.448;2024-03-06T03:07:38;12.48;;;7.38;;
28266;SDS011;15525;45.568;5.448;2024-03-06T03:10:03;12.52;;;8.07;;
28266;SDS011;15525;45.568;5.448;2024-03-06T03:12:29;10.73;;;7.63;;
28266;SDS011;15525;45.568;5.448;2024-03-06T03:14:55;10.65;;;7.10;;
28266;SDS011;15525;45.568;5.448;2024-03-06T03:17:20;12.85;;;7.90;;
28266;SDS011;15525;45.568;5.448;2024-03-06T03:19:46;12.13;;;8.30;;
28266;SDS011;15525;45.568;5.448;2024-03-06T03:22:11;12.10;;;7.55;;
28266;SDS011;15525;45.568;5.448;2024-03-06T03:24:38;13.90;;;7.70;;
28266;SDS011;15525;45.568;5.448;2024-03-06T03:27:04;14.55;;;9.13;;
28266;SDS011;15525;45.568;5.448;2024-03-06T03:29:29;13.98;;;8.70;;
28266;SDS011;15525;45.568;5.448;2024-03-06T03:31:55;15.65;;;8.40;;
28266;SDS011;15525;45.568;5.448;2024-03-06T03:34:20;13.30;;;8.20;;
28266;SDS011;15525;45.568;5.448;2024-03-06T03:36:46;16.67;;;9.43;;
28266;SDS011;15525;45.568;5.448;2024-03-06T03:39:11;15.48;;;9.35;;
28266;SDS011;15525;45.568;5.448;2024-03-06T03:41:45;15.18;;;8.88;;
28266;SDS011;15525;45.568;5.448;2024-03-06T03:44:15;15.20;;;8.85;;
28266;SDS011;15525;45.568;5.448;2024-03-06T03:46:42;14.50;;;9.05;;
28266;SDS011;15525;45.568;5.448;2024-03-06T03:49:08;14.35;;;9.02;;
28266;SDS011;15525;45.568;5.448;2024-03-06T03:51:37;15.27;;;8.68;;
28266;SDS011;15525;45.568;5.448;2024-03-06T03:54:03;14.68;;;9.25;;
28266;SDS011;15525;45.568;5.448;2024-03-06T03:56:28;15.23;;;8.60;;
28266;SDS011;15525;45.568;5.448;2024-03-06T03:58:55;12.98;;;8.75;;
28266;SDS011;15525;45.568;5.448;2024-03-06T04:01:21;15.23;;;8.90;;
28266;SDS011;15525;45.568;5.448;2024-03-06T04:03:48;12.50;;;8.40;;
28266;SDS011;15525;45.568;5.448;2024-03-06T04:06:13;14.35;;;9.02;;
28266;SDS011;15525;45.568;5.448;2024-03-06T04:08:39;16.13;;;9.68;;
28266;SDS011;15525;45.568;5.448;2024-03-06T04:11:04;17.42;;;10.10;;
28266;SDS011;15525;45.568;5.448;2024-03-06T04:13:29;15.65;;;9.38;;
28266;SDS011;15525;45.568;5.448;2024-03-06T04:15:55;17.48;;;10.43;;
28266;SDS011;15525;45.568;5.448;2024-03-06T04:18:21;16.33;;;9.27;;
28266;SDS011;15525;45.568;5.448;2024-03-06T04:20:46;15.75;;;9.85;;
28266;SDS011;15525;45.568;5.448;2024-03-06T04:23:12;15.32;;;9.40;;
28266;SDS011;15525;45.568;5.448;2024-03-06T04:25:37;18.50;;;9.27;;
28266;SDS011;15525;45.568;5.448;2024-03-06T04:28:04;15.15;;;9.60;;
28266;SDS011;15525;45.568;5.448;2024-03-06T04:30:32;16.52;;;9.57;;
28266;SDS011;15525;45.568;5.448;2024-03-06T04:32:58;16.73;;;9.82;;
28266;SDS011;15525;45.568;5.448;2024-03-06T04:35:23;13.98;;;8.82;;
28266;SDS011;15525;45.568;5.448;2024-03-06T04:37:48;14.82;;;8.85;;
28266;SDS011;15525;45.568;5.448;2024-03-06T04:40:14;16.55;;;10.10;;
28266;SDS011;15525;45.568;5.448;2024-03-06T04:42:44;16.10;;;10.07;;
28266;SDS011;15525;45.568;5.448;2024-03-06T04:45:11;20.48;;;11.23;;
28266;SDS011;15525;45.568;5.448;2024-03-06T04:47:41;17.05;;;10.45;;
28266;SDS011;15525;45.568;5.448;2024-03-06T04:50:10;19.33;;;11.45;;
28266;SDS011;15525;45.568;5.448;2024-03-06T04:52:36;18.13;;;10.82;;
28266;SDS011;15525;45.568;5.448;2024-03-06T04:55:03;18.63;;;10.75;;
28266;SDS011;15525;45.568;5.448;2024-03-06T04:57:29;17.63;;;10.88;;
28266;SDS011;15525;45.568;5.448;2024-03-06T04:59:55;18.52;;;10.88;;
28266;SDS011;15525;45.568;5.448;2024-03-06T05:02:21;19.08;;;11.05;;
28266;SDS011;15525;45.568;5.448;2024-03-06T05:04:46;16.83;;;10.68;;
28266;SDS011;15525;45.568;5.448;2024-03-06T05:07:12;18.30;;;10.82;;
28266;SDS011;15525;45.568;5.448;2024-03-06T05:09:38;19.10;;;11.10;;
28266;SDS011;15525;45.568;5.448;2024-03-06T05:12:04;19.58;;;10.88;;
28266;SDS011;15525;45.568;5.448;2024-03-06T05:14:30;18.73;;;11.07;;
28266;SDS011;15525;45.568;5.448;2024-03-06T05:16:55;19.05;;;11.50;;
28266;SDS011;15525;45.568;5.448;2024-03-06T05:19:21;18.40;;;11.43;;
28266;SDS011;15525;45.568;5.448;2024-03-06T05:21:46;19.25;;;11.30;;
28266;SDS011;15525;45.568;5.448;2024-03-06T05:24:11;17.60;;;10.82;;
28266;SDS011;15525;45.568;5.448;2024-03-06T05:26:37;17.58;;;11.07;;
28266;SDS011;15525;45.568;5.448;2024-03-06T05:29:02;16.85;;;10.68;;
28266;SDS011;15525;45.568;5.448;2024-03-06T05:31:28;16.50;;;9.98;;
28266;SDS011;15525;45.568;5.448;2024-03-06T05:33:53;17.35;;;10.25;;
28266;SDS011;15525;45.568;5.448;2024-03-06T05:36:19;36.85;;;21.85;;
28266;SDS011;15525;45.568;5.448;2024-03-06T05:38:44;19.23;;;11.70;;
28266;SDS011;15525;45.568;5.448;2024-03-06T05:41:10;20.02;;;11.55;;
28266;SDS011;15525;45.568;5.448;2024-03-06T05:43:36;18.90;;;11.27;;
28266;SDS011;15525;45.568;5.448;2024-03-06T05:46:01;19.33;;;11.23;;
28266;SDS011;15525;45.568;5.448;2024-03-06T05:48:26;19.65;;;11.57;;
28266;SDS011;15525;45.568;5.448;2024-03-06T05:50:52;21.63;;;12.00;;
28266;SDS011;15525;45.568;5.448;2024-03-06T05:53:18;20.80;;;12.43;;
28266;SDS011;15525;45.568;5.448;2024-03-06T05:55:43;18.92;;;12.02;;
28266;SDS011;15525;45.568;5.448;2024-03-06T05:58:09;21.73;;;11.98;;
28266;SDS011;15525;45.568;5.448;2024-03-06T06:00:34;19.75;;;11.95;;
28266;SDS011;15525;45.568;5.448;2024-03-06T06:03:00;19.23;;;12.00;;
28266;SDS011;15525;45.568;5.448;2024-03-06T06:05:25;22.75;;;12.77;;
28266;SDS011;15525;45.568;5.448;2024-03-06T06:07:50;23.45;;;13.57;;
28266;SDS011;15525;45.568;5.448;2024-03-06T06:10:16;23.10;;;13.35;;
28266;SDS011;15525;45.568;5.448;2024-03-06T06:12:42;24.23;;;12.85;;
28266;SDS011;15525;45.568;5.448;2024-03-06T06:15:07;21.33;;;12.00;;
28266;SDS011;15525;45.568;5.448;2024-03-06T06:17:33;19.42;;;11.85;;
28266;SDS011;15525;45.568;5.448;2024-03-06T06:19:59;23.33;;;11.80;;
28266;SDS011;15525;45.568;5.448;2024-03-06T06:22:28;19.80;;;11.77;;
28266;SDS011;15525;45.568;5.448;2024-03-06T06:24:53;19.25;;;11.75;;
28266;SDS011;15525;45.568;5.448;2024-03-06T06:27:20;21.52;;;12.43;;
28266;SDS011;15525;45.568;5.448;2024-03-06T06:29:46;20.35;;;13.05;;
28266;SDS011;15525;45.568;5.448;2024-03-06T06:32:11;21.90;;;13.13;;
28266;SDS011;15525;45.568;5.448;2024-03-06T06:34:37;19.92;;;12.43;;
28266;SDS011;15525;45.568;5.448;2024-03-06T06:37:02;22.90;;;12.77;;
28266;SDS011;15525;45.568;5.448;2024-03-06T06:39:28;18.55;;;12.15;;
28266;SDS011;15525;45.568;5.448;2024-03-06T06:41:53;19.40;;;12.73;;
28266;SDS011;15525;45.568;5.448;2024-03-06T06:44:18;21.75;;;13.13;;
28266;SDS011;15525;45.568;5.448;2024-03-06T06:46:44;22.20;;;13.32;;
28266;SDS011;15525;45.568;5.448;2024-03-06T06:49:09;25.50;;;14.98;;
28266;SDS011;15525;45.568;5.448;2024-03-06T06:51:34;28.30;;;16.55;;
28266;SDS011;15525;45.568;5.448;2024-03-06T06:54:00;29.98;;;16.38;;
28266;SDS011;15525;45.568;5.448;2024-03-06T06:56:26;25.20;;;15.82;;
28266;SDS011;15525;45.568;5.448;2024-03-06T06:58:51;22.77;;;14.40;;
28266;SDS011;15525;45.568;5.448;2024-03-06T07:01:17;28.35;;;15.38;;
28266;SDS011;15525;45.568;5.448;2024-03-06T07:03:43;25.75;;;14.25;;
28266;SDS011;15525;45.568;5.448;2024-03-06T07:06:08;22.52;;;14.13;;
28266;SDS011;15525;45.568;5.448;2024-03-06T07:08:33;24.00;;;15.05;;
28266;SDS011;15525;45.568;5.448;2024-03-06T07:10:59;25.08;;;16.08;;
28266;SDS011;15525;45.568;5.448;2024-03-06T07:13:24;29.58;;;16.58;;
28266;SDS011;15525;45.568;5.448;2024-03-06T07:15:50;27.00;;;16.25;;
28266;SDS011;15525;45.568;5.448;2024-03-06T07:18:15;26.50;;;16.00;;
28266;SDS011;15525;45.568;5.448;2024-03-06T07:20:40;25.60;;;15.38;;
28266;SDS011;15525;45.568;5.448;2024-03-06T07:23:06;24.98;;;15.05;;
28266;SDS011;15525;45.568;5.448;2024-03-06T07:25:31;26.98;;;15.13;;
28266;SDS011;15525;45.568;5.448;2024-03-06T07:27:57;25.92;;;14.70;;
28266;SDS011;15525;45.568;5.448;2024-03-06T07:30:22;25.55;;;15.38;;
28266;SDS011;15525;45.568;5.448;2024-03-06T07:32:48;22.65;;;14.32;;
28266;SDS011;15525;45.568;5.448;2024-03-06T07:35:13;22.38;;;14.60;;
28266;SDS011;15525;45.568;5.448;2024-03-06T07:37:39;22.02;;;13.27;;
28266;SDS011;15525;45.568;5.448;2024-03-06T07:40:05;20.52;;;12.82;;
28266;SDS011;15525;45.568;5.448;2024-03-06T07:42:32;24.40;;;13.88;;
28266;SDS011;15525;45.568;5.448;2024-03-06T07:44:58;24.05;;;13.85;;
28266;SDS011;15525;45.568;5.448;2024-03-06T07:47:24;26.17;;;14.93;;
28266;SDS011;15525;45.568;5.448;2024-03-06T07:49:49;27.55;;;14.40;;
28266;SDS011;15525;45.568;5.448;2024-03-06T07:52:15;30.20;;;16.33;;
28266;SDS011;15525;45.568;5.448;2024-03-06T07:54:41;25.80;;;16.23;;
28266;SDS011;15525;45.568;5.448;2024-03-06T07:57:06;26.55;;;15.85;;
28266;SDS011;15525;45.568;5.448;2024-03-06T07:59:32;27.55;;;16.95;;
28266;SDS011;15525;45.568;5.448;2024-03-06T08:01:57;26.17;;;14.75;;
28266;SDS011;15525;45.568;5.448;2024-03-06T08:04:23;21.45;;;12.85;;
28266;SDS011;15525;45.568;5.448;2024-03-06T08:06:48;19.55;;;12.55;;
28266;SDS011;15525;45.568;5.448;2024-03-06T08:09:14;18.00;;;11.35;;
28266;SDS011;15525;45.568;5.448;2024-03-06T08:11:41;18.40;;;11.48;;
28266;SDS011;15525;45.568;5.448;2024-03-06T08:14:07;17.73;;;10.45;;
28266;SDS011;15525;45.568;5.448;2024-03-06T08:16:32;18.15;;;9.07;;
28266;SDS011;15525;45.568;5.448;2024-03-06T08:18:59;24.35;;;9.27;;
28266;SDS011;15525;45.568;5.448;2024-03-06T08:21:25;18.02;;;10.35;;
28266;SDS011;15525;45.568;5.448;2024-03-06T08:23:50;19.67;;;9.60;;
28266;SDS011;15525;45.568;5.448;2024-03-06T08:26:16;16.83;;;9.73;;
28266;SDS011;15525;45.568;5.448;2024-03-06T08:28:41;14.75;;;9.00;;
28266;SDS011;15525;45.568;5.448;2024-03-06T08:31:07;16.98;;;9.15;;
28266;SDS011;15525;45.568;5.448;2024-03-06T08:33:33;17.00;;;9.38;;
28266;SDS011;15525;45.568;5.448;2024-03-06T08:35:59;13.82;;;7.55;;
28266;SDS011;15525;45.568;5.448;2024-03-06T08:38:24;13.88;;;7.43;;
28266;SDS011;15525;45.568;5.448;2024-03-06T08:40:50;11.88;;;6.70;;
28266;SDS011;15525;45.568;5.448;2024-03-06T08:43:15;12.05;;;6.65;;
28266;SDS011;15525;45.568;5.448;2024-03-06T08:45:41;10.57;;;7.28;;
28266;SDS011;15525;45.568;5.448;2024-03-06T08:48:07;12.35;;;7.85;;
28266;SDS011;15525;45.568;5.448;2024-03-06T08:50:33;11.27;;;6.75;;
28266;SDS011;15525;45.568;5.448;2024-03-06T08:52:58;11.85;;;7.60;;
28266;SDS011;15525;45.568;5.448;2024-03-06T08:55:24;12.05;;;7.60;;
28266;SDS011;15525;45.568;5.448;2024-03-06T08:57:49;13.85;;;8.63;;
28266;SDS011;15525;45.568;5.448;2024-03-06T09:00:15;11.57;;;7.85;;
28266;SDS011;15525;45.568;5.448;2024-03-06T09:02:42;12.23;;;8.00;;
28266;SDS011;15525;45.568;5.448;2024-03-06T09:05:08;11.98;;;7.55;;
28266;SDS011;15525;45.568;5.448;2024-03-06T09:07:35;12.32;;;7.50;;
28266;SDS011;15525;45.568;5.448;2024-03-06T09:10:05;13.88;;;7.57;;
28266;SDS011;15525;45.568;5.448;2024-03-06T09:12:31;13.07;;;7.40;;
28266;SDS011;15525;45.568;5.448;2024-03-06T09:14:57;12.60;;;6.85;;
28266;SDS011;15525;45.568;5.448;2024-03-06T09:17:22;6.97;;;3.78;;
28266;SDS011;15525;45.568;5.448;2024-03-06T09:19:48;11.13;;;6.00;;
28266;SDS011;15525;45.568;5.448;2024-03-06T09:22:13;9.27;;;5.93;;
28266;SDS011;15525;45.568;5.448;2024-03-06T09:24:39;15.02;;;7.80;;
28266;SDS011;15525;45.568;5.448;2024-03-06T09:27:04;10.48;;;6.22;;
28266;SDS011;15525;45.568;5.448;2024-03-06T09:29:30;15.40;;;6.78;;
28266;SDS011;15525;45.568;5.448;2024-03-06T09:31:56;19.83;;;8.88;;
28266;SDS011;15525;45.568;5.448;2024-03-06T09:34:21;17.48;;;8.70;;
28266;SDS011;15525;45.568;5.448;2024-03-06T09:36:48;18.42;;;9.45;;
28266;SDS011;15525;45.568;5.448;2024-03-06T09:39:15;21.02;;;9.18;;
28266;SDS011;15525;45.568;5.448;2024-03-06T09:41:45;19.38;;;8.55;;
28266;SDS011;15525;45.568;5.448;2024-03-06T09:44:11;23.17;;;9.82;;
28266;SDS011;15525;45.568;5.448;2024-03-06T09:46:37;25.10;;;10.00;;
28266;SDS011;15525;45.568;5.448;2024-03-06T09:49:06;21.17;;;10.00;;
28266;SDS011;15525;45.568;5.448;2024-03-06T09:51:32;18.88;;;8.10;;
28266;SDS011;15525;45.568;5.448;2024-03-06T09:53:58;22.17;;;8.27;;
28266;SDS011;15525;45.568;5.448;2024-03-06T09:56:24;17.02;;;7.97;;
28266;SDS011;15525;45.568;5.448;2024-03-06T09:58:50;18.05;;;8.73;;
28266;SDS011;15525;45.568;5.448;2024-03-06T10:01:15;17.73;;;8.20;;
28266;SDS011;15525;45.568;5.448;2024-03-06T10:03:42;18.67;;;8.57;;
28266;SDS011;15525;45.568;5.448;2024-03-06T10:06:07;18.48;;;8.50;;
28266;SDS011;15525;45.568;5.448;2024-03-06T10:08:33;16.95;;;7.50;;
28266;SDS011;15525;45.568;5.448;2024-03-06T10:10:59;16.48;;;6.95;;
28266;SDS011;15525;45.568;5.448;2024-03-06T10:13:25;15.82;;;6.93;;
28266;SDS011;15525;45.568;5.448;2024-03-06T10:18:22;18.67;;;8.18;;
28266;SDS011;15525;45.568;5.448;2024-03-06T10:20:52;18.42;;;7.88;;
28266;SDS011;15525;45.568;5.448;2024-03-06T10:23:18;16.48;;;6.85;;
28266;SDS011;15525;45.568;5.448;2024-03-06T10:25:43;18.45;;;8.23;;
28266;SDS011;15525;45.568;5.448;2024-03-06T10:28:15;17.05;;;7.93;;
28266;SDS011;15525;45.568;5.448;2024-03-06T10:30:42;14.35;;;6.85;;
28266;SDS011;15525;45.568;5.448;2024-03-06T10:33:08;13.73;;;7.93;;
28266;SDS011;15525;45.568;5.448;2024-03-06T10:35:34;15.35;;;8.32;;
28266;SDS011;15525;45.568;5.448;2024-03-06T10:38:03;14.30;;;7.30;;
28266;SDS011;15525;45.568;5.448;2024-03-06T10:40:33;13.48;;;7.40;;
28266;SDS011;15525;45.568;5.448;2024-03-06T10:43:01;12.40;;;6.50;;
28266;SDS011;15525;45.568;5.448;2024-03-06T10:48:01;13.32;;;6.45;;
28266;SDS011;15525;45.568;5.448;2024-03-06T10:50:27;8.68;;;4.95;;
28266;SDS011;15525;45.568;5.448;2024-03-06T10:52:55;11.48;;;4.97;;
28266;SDS011;15525;45.568;5.448;2024-03-06T10:55:22;11.38;;;5.40;;
28266;SDS011;15525;45.568;5.448;2024-03-06T10:57:50;8.80;;;4.78;;
28266;SDS011;15525;45.568;5.448;2024-03-06T11:00:19;11.70;;;4.90;;
28266;SDS011;15525;45.568;5.448;2024-03-06T11:02:46;9.85;;;5.10;;
28266;SDS011;15525;45.568;5.448;2024-03-06T11:05:13;7.80;;;4.25;;
28266;SDS011;15525;45.568;5.448;2024-03-06T11:07:39;9.55;;;4.97;;
28266;SDS011;15525;45.568;5.448;2024-03-06T11:10:04;10.05;;;4.63;;
28266;SDS011;15525;45.568;5.448;2024-03-06T11:12:37;10.70;;;4.95;;
28266;SDS011;15525;45.568;5.448;2024-03-06T11:15:10;11.38;;;4.88;;
28266;SDS011;15525;45.568;5.448;2024-03-06T11:17:39;10.25;;;5.07;;
28266;SDS011;15525;45.568;5.448;2024-03-06T11:28:18;11.30;;;4.63;;
28266;SDS011;15525;45.568;5.448;2024-03-06T11:33:24;11.07;;;4.90;;
28266;SDS011;15525;45.568;5.448;2024-03-06T11:39:00;9.48;;;5.32;;
28266;SDS011;15525;45.568;5.448;2024-03-06T11:41:29;10.27;;;5.20;;
28266;SDS011;15525;45.568;5.448;2024-03-06T11:43:56;10.07;;;5.40;;
28266;SDS011;15525;45.568;5.448;2024-03-06T11:49:26;11.27;;;5.70;;
28266;SDS011;15525;45.568;5.448;2024-03-06T11:52:03;9.85;;;5.22;;
28266;SDS011;15525;45.568;5.448;2024-03-06T11:54:30;6.07;;;2.90;;
28266;SDS011;15525;45.568;5.448;2024-03-06T11:56:57;6.22;;;4.00;;
28266;SDS011;15525;45.568;5.448;2024-03-06T11:59:27;9.40;;;4.75;;
28266;SDS011;15525;45.568;5.448;2024-03-06T12:02:00;7.85;;;4.35;;
28266;SDS011;15525;45.568;5.448;2024-03-06T12:04:27;7.25;;;3.80;;
28266;SDS011;15525;45.568;5.448;2024-03-06T12:06:56;7.43;;;3.90;;
28266;SDS011;15525;45.568;5.448;2024-03-06T12:09:24;8.77;;;4.60;;
28266;SDS011;15525;45.568;5.448;2024-03-06T12:11:49;6.95;;;3.50;;
28266;SDS011;15525;45.568;5.448;2024-03-06T12:14:17;4.93;;;3.03;;
28266;SDS011;15525;45.568;5.448;2024-03-06T12:16:55;5.32;;;3.03;;
28266;SDS011;15525;45.568;5.448;2024-03-06T12:19:26;5.90;;;3.33;;
28266;SDS011;15525;45.568;5.448;2024-03-06T12:21:53;8.88;;;4.03;;
28266;SDS011;15525;45.568;5.448;2024-03-06T12:24:19;6.90;;;3.85;;
28266;SDS011;15525;45.568;5.448;2024-03-06T12:26:44;5.05;;;3.28;;
28266;SDS011;15525;45.568;5.448;2024-03-06T12:29:10;4.97;;;3.20;;
28266;SDS011;15525;45.568;5.448;2024-03-06T12:31:37;6.22;;;2.92;;
28266;SDS011;15525;45.568;5.448;2024-03-06T12:34:04;8.75;;;2.95;;
28266;SDS011;15525;45.568;5.448;2024-03-06T12:36:31;6.13;;;2.40;;
28266;SDS011;15525;45.568;5.448;2024-03-06T12:39:02;4.38;;;2.20;;
28266;SDS011;15525;45.568;5.448;2024-03-06T12:41:28;5.03;;;2.30;;
28266;SDS011;15525;45.568;5.448;2024-03-06T12:43:55;8.20;;;2.33;;
28266;SDS011;15525;45.568;5.448;2024-03-06T12:46:21;7.60;;;2.25;;
28266;SDS011;15525;45.568;5.448;2024-03-06T12:48:47;3.20;;;1.85;;
28266;SDS011;15525;45.568;5.448;2024-03-06T12:51:13;7.13;;;2.10;;
28266;SDS011;15525;45.568;5.448;2024-03-06T12:53:38;6.60;;;2.10;;
28266;SDS011;15525;45.568;5.448;2024-03-06T12:56:05;3.83;;;2.17;;
28266;SDS011;15525;45.568;5.448;2024-03-06T12:58:31;5.00;;;2.42;;
28266;SDS011;15525;45.568;5.448;2024-03-06T13:00:56;6.15;;;2.10;;
28266;SDS011;15525;45.568;5.448;2024-03-06T13:03:22;3.70;;;1.70;;
28266;SDS011;15525;45.568;5.448;2024-03-06T13:05:48;3.90;;;1.65;;
28266;SDS011;15525;45.568;5.448;2024-03-06T13:08:13;4.50;;;1.60;;
28266;SDS011;15525;45.568;5.448;2024-03-06T13:10:41;4.45;;;1.80;;
28266;SDS011;15525;45.568;5.448;2024-03-06T13:13:07;3.28;;;1.50;;
28266;SDS011;15525;45.568;5.448;2024-03-06T13:15:33;3.40;;;1.50;;
28266;SDS011;15525;45.568;5.448;2024-03-06T13:18:02;3.70;;;1.80;;
28266;SDS011;15525;45.568;5.448;2024-03-06T13:20:28;4.35;;;1.52;;
28266;SDS011;15525;45.568;5.448;2024-03-06T13:22:54;6.35;;;1.60;;
28266;SDS011;15525;45.568;5.448;2024-03-06T13:25:21;4.00;;;1.48;;
28266;SDS011;15525;45.568;5.448;2024-03-06T13:27:47;3.47;;;1.50;;
28266;SDS011;15525;45.568;5.448;2024-03-06T13:30:12;4.38;;;1.30;;
28266;SDS011;15525;45.568;5.448;2024-03-06T13:32:38;2.00;;;1.30;;
28266;SDS011;15525;45.568;5.448;2024-03-06T13:35:03;2.58;;;1.38;;
28266;SDS011;15525;45.568;5.448;2024-03-06T13:37:31;2.80;;;1.42;;
28266;SDS011;15525;45.568;5.448;2024-03-06T13:39:57;3.83;;;1.48;;
28266;SDS011;15525;45.568;5.448;2024-03-06T13:42:26;2.65;;;1.23;;
28266;SDS011;15525;45.568;5.448;2024-03-06T13:44:52;3.60;;;1.45;;
28266;SDS011;15525;45.568;5.448;2024-03-06T13:47:17;3.95;;;1.55;;
28266;SDS011;15525;45.568;5.448;2024-03-06T13:49:43;5.25;;;1.50;;
28266;SDS011;15525;45.568;5.448;2024-03-06T13:52:09;3.70;;;1.40;;
28266;SDS011;15525;45.568;5.448;2024-03-06T13:54:38;3.70;;;1.48;;
28266;SDS011;15525;45.568;5.448;2024-03-06T13:57:05;4.20;;;1.60;;
28266;SDS011;15525;45.568;5.448;2024-03-06T13:59:32;3.72;;;1.88;;
28266;SDS011;15525;45.568;5.448;2024-03-06T14:01:58;3.20;;;1.70;;
28266;SDS011;15525;45.568;5.448;2024-03-06T14:04:24;6.82;;;2.83;;
28266;SDS011;15525;45.568;5.448;2024-03-06T14:06:50;3.47;;;1.80;;
28266;SDS011;15525;45.568;5.448;2024-03-06T14:09:16;5.22;;;1.88;;
28266;SDS011;15525;45.568;5.448;2024-03-06T14:11:41;3.70;;;2.00;;
28266;SDS011;15525;45.568;5.448;2024-03-06T14:14:06;5.32;;;2.08;;
28266;SDS011;15525;45.568;5.448;2024-03-06T14:16:33;4.00;;;1.42;;
28266;SDS011;15525;45.568;5.448;2024-03-06T14:18:59;2.38;;;1.27;;
28266;SDS011;15525;45.568;5.448;2024-03-06T14:21:24;4.30;;;1.27;;
28266;SDS011;15525;45.568;5.448;2024-03-06T14:23:50;3.92;;;1.27;;
28266;SDS011;15525;45.568;5.448;2024-03-06T14:26:15;2.70;;;1.10;;
28266;SDS011;15525;45.568;5.448;2024-03-06T14:28:41;3.55;;;1.20;;
28266;SDS011;15525;45.568;5.448;2024-03-06T14:31:06;3.78;;;1.08;;
28266;SDS011;15525;45.568;5.448;2024-03-06T14:33:32;5.63;;;1.10;;
28266;SDS011;15525;45.568;5.448;2024-03-06T14:35:58;3.25;;;1.23;;
28266;SDS011;15525;45.568;5.448;2024-03-06T14:38:24;2.15;;;1.08;;
28266;SDS011;15525;45.568;5.448;2024-03-06T14:40:50;5.10;;;1.05;;
28266;SDS011;15525;45.568;5.448;2024-03-06T14:43:15;3.35;;;1.02;;
28266;SDS011;15525;45.568;5.448;2024-03-06T14:45:42;3.72;;;1.17;;
28266;SDS011;15525;45.568;5.448;2024-03-06T14:48:09;2.80;;;1.27;;
28266;SDS011;15525;45.568;5.448;2024-03-06T14:50:35;1.70;;;1.10;;